メインページ
METAR-TAF:

METAR-TAF

空港 :

アカプルコ, メキシコ

アカプルコ国際空港

緯度: 16-46N, 経度: 099-45W, 海抜: 5m

現時点の気象観測

当レポートは1時間21分前の09:45(UTC)に作成
西の風 5kt
気温 25°C
湿度 94%
気圧 1010 hPa
視程: 6.4km
高度1500ftの雲は散在している, 積乱雲.
高度10000ftの千切れ雲あり
高度30000ftの曇り
小雨

METAR: MMAA 200945Z 27005KT 4SM -RA SCT015CB BKN100 OVC300 25/24 A2982 RMK 8/963 -RAB39

時間: 06:06 (11:06 UTC)

予報

当レポートは6時間36分前の04:30(UTC)に作成
予報は20日の 06時(UTC)から 21日の 12時(UTC)まで有効
西/南西の風 5kt
視程: 9.7km
高度1500ftの雲は散在している, 積乱雲.
高度10000ftの千切れ雲あり
高度30000ftの千切れ雲あり
小雨
20日の 06時(UTC)から 20日の 10時(UTC)まで一時的に
視程: 6.4km
高度1000ftの千切れ雲あり, 積乱雲.
激しい雷雨, 雨
20日の 1800時(UTC)から
南西の風 10kt
視程: 9.7km
高度2000ftの雲は散在している
高度10000ftの千切れ雲あり
高度30000ftの千切れ雲あり
煙霧
20日の 23時(UTC)から 21日の 03時(UTC)まで一時的に
視程: 8.0km
高度1000ftの千切れ雲あり, 積乱雲.
激しい雷雨, 雨

TAF: MMAA 200430Z 2006/2112 24005KT 6SM -RA SCT015CB BKN100 BKN300 TX31/2019Z TN25/2012Z TEMPO 2006/2010 4SM TSRA BKN010CB FM201800 23010KT 6SM HZ SCT020 BKN100 BKN300 TEMPO 2023/2103 5SM TSRA BKN010CB

4,000以上の空港の気象観測と天気予報(METAR報とTAF報)

利用可能な観測所は地図上に黄色い丸と赤い丸で示す。

丸の上にカーソルを重ねると観測所名を参照できる。

次にクリックすると気象観測と天気予報を参照できる。

マップの切り替え:黒色「×」印の緑ボタンをクリックして拡大、「-」印の緑ボタンをクリックして縮小、緑色の三角印をクリックして隣りの地図に切り替え


METAR-TAF: